Time;durP1;ratioP1;P1;durP2;ratioP2;P2;SDS_P1;SDS_P2;PMS_P1;PMS_P2;Temp;Humidity;BMP_temperature;BMP_pressure;BME280_temperature;BME280_humidity;BME280_pressure;Samples;Min_cycle;Max_cycle;Signal;HPM_P1;HPM_P2
2023/12/16 00:02:26;;;;;;;8.05;4.53;;;;;;;20.50;50.36;102208.28;41709688;28;20128;-75
2023/12/16 00:22:27;;;;;;;6.25;4.47;;;;;;;20.48;50.12;102229.44;41697188;28;20084;-75
2023/12/16 00:42:27;;;;;;;5.15;4.05;;;;;;;20.43;50.16;102234.06;41685536;28;20048;-75
2023/12/16 01:02:28;;;;;;;4.93;4.20;;;;;;;20.36;50.46;102253.66;41695460;28;20048;-75
2023/12/16 01:22:28;;;;;;;4.43;3.80;;;;;;;20.26;49.96;102260.22;41693631;28;20076;-75
2023/12/16 01:42:29;;;;;;;4.95;4.10;;;;;;;20.26;50.13;102269.00;41704506;28;20064;-75
2023/12/16 02:02:30;;;;;;;4.38;3.90;;;;;;;20.22;50.25;102285.81;41696612;28;20048;-75
2023/12/16 02:22:30;;;;;;;4.32;3.90;;;;;;;20.22;50.13;102295.50;41691864;28;20119;-74
2023/12/16 02:42:32;;;;;;;4.68;3.92;;;;;;;20.20;49.88;102285.06;41688901;28;20045;-76
2023/12/16 03:02:33;;;;;;;4.90;3.92;;;;;;;20.19;49.58;102327.19;41717990;28;20469;-74
2023/12/16 03:22:33;;;;;;;4.55;4.00;;;;;;;20.19;49.93;102330.69;41696306;28;20042;-74
2023/12/16 03:42:35;;;;;;;5.45;3.75;;;;;;;20.15;49.47;102353.63;41709273;28;20032;-74
2023/12/16 04:02:35;;;;;;;4.28;3.88;;;;;;;20.17;49.50;102371.13;41713010;28;20053;-74
2023/12/16 04:22:37;;;;;;;5.13;4.10;;;;;;;20.18;49.35;102376.31;41703522;28;20053;-74
2023/12/16 04:42:41;;;;;;;5.40;3.97;;;;;;;20.20;49.26;102389.38;41702905;28;20500;-74
2023/12/16 05:02:41;;;;;;;4.60;3.88;;;;;;;20.15;49.43;102398.34;41705685;28;20160;-74
2023/12/16 05:22:41;;;;;;;4.78;3.97;;;;;;;20.69;48.56;102423.31;41701815;28;20752;-75
2023/12/16 05:42:42;;;;;;;3.97;3.53;;;;;;;20.92;47.97;102431.09;41698693;28;20077;-73
2023/12/16 06:02:43;;;;;;;4.45;3.70;;;;;;;21.01;47.79;102458.81;41694681;28;20155;-74
2023/12/16 06:22:43;;;;;;;5.20;3.92;;;;;;;21.24;47.17;102447.25;41681398;28;20044;-74
2023/12/16 06:42:43;;;;;;;4.32;3.80;;;;;;;21.36;46.59;102469.56;41723051;28;20045;-75
2023/12/16 07:02:45;;;;;;;5.80;4.40;;;;;;;21.36;47.70;102495.03;41739438;28;20041;-73
2023/12/16 07:22:45;;;;;;;6.70;4.43;;;;;;;21.54;47.32;102527.63;41729792;28;20044;-73
2023/12/16 07:42:46;;;;;;;7.97;5.45;;;;;;;21.37;44.98;102531.91;41732712;28;20049;-70
2023/12/16 08:02:46;;;;;;;14.18;6.32;;;;;;;20.60;44.96;102530.72;41685037;28;20053;-74
2023/12/16 08:22:46;;;;;;;9.90;5.90;;;;;;;21.23;45.31;102550.94;41693250;28;20499;-72
2023/12/16 08:42:47;;;;;;;6.63;5.60;;;;;;;21.39;45.78;102561.66;41705215;28;20049;-74
2023/12/16 09:02:48;;;;;;;10.20;6.20;;;;;;;21.18;43.66;102559.94;41692610;28;20092;-78
2023/12/16 09:22:49;;;;;;;23.58;7.43;;;;;;;21.48;45.13;102557.75;41693549;28;20496;-76
2023/12/16 09:42:53;;;;;;;14.73;8.23;;;;;;;21.72;45.73;102549.72;41734784;28;20042;-82
2023/12/16 10:02:56;;;;;;;12.25;8.95;;;;;;;21.90;45.50;102535.66;41763773;28;20049;-79
2023/12/16 10:23:03;;;;;;;11.80;8.23;;;;;;;21.99;46.65;102515.91;41720827;28;20049;-72
2023/12/16 10:43:05;;;;;;;15.75;9.00;;;;;;;22.16;47.01;102490.53;41717916;28;20045;-73
2023/12/16 11:03:28;;;;;;;15.57;11.52;;;;;;;22.65;47.89;102505.75;41722770;28;20045;-74
2023/12/16 11:23:29;;;;;;;16.35;12.13;;;;;;;22.66;48.88;102496.91;41758415;28;20122;-78
2023/12/16 11:43:53;;;;;;;18.75;11.13;;;;;;;22.97;48.86;102479.47;41770182;28;20569;-80
2023/12/16 12:03:54;;;;;;;18.65;11.32;;;;;;;23.52;49.61;102470.41;41749192;28;20041;-81
2023/12/16 12:24:04;;;;;;;14.60;11.52;;;;;;;23.34;50.29;102459.09;41765039;28;20049;-80
2023/12/16 12:44:12;;;;;;;12.63;10.32;;;;;;;23.27;51.13;102450.63;41734184;28;20049;-81
2023/12/16 13:04:12;;;;;;;14.02;7.35;;;;;;;21.83;37.00;102436.66;41745136;28;20056;-80
2023/12/16 13:24:13;;;;;;;10.95;7.75;;;;;;;22.72;45.60;102433.22;41753815;28;20037;-77
2023/12/16 13:44:16;;;;;;;9.65;7.90;;;;;;;22.48;47.26;102430.03;41737498;28;20057;-79
2023/12/16 14:04:16;;;;;;;9.20;7.55;;;;;;;22.23;48.50;102436.53;41758861;28;20052;-76
2023/12/16 14:24:17;;;;;;;8.38;7.03;;;;;;;22.09;48.88;102429.28;41754441;28;20136;-76
2023/12/16 14:44:17;;;;;;;11.77;6.50;;;;;;;21.93;49.08;102428.31;41781740;28;20044;-81
2023/12/16 15:04:17;;;;;;;12.38;6.95;;;;;;;21.77;50.01;102438.75;41750121;28;20051;-85
2023/12/16 15:24:18;;;;;;;13.90;8.52;;;;;;;21.64;50.22;102446.38;41738475;28;20045;-80
2023/12/16 15:44:20;;;;;;;12.23;7.47;;;;;;;21.57;50.43;102440.56;41725368;28;20067;-80
2023/12/16 16:04:21;;;;;;;10.00;6.57;;;;;;;21.38;50.16;102459.78;41755634;28;20136;-80
2023/12/16 16:24:21;;;;;;;8.98;6.32;;;;;;;21.35;50.04;102478.38;41742603;28;20033;-80
2023/12/16 16:44:24;;;;;;;9.57;6.80;;;;;;;21.33;50.91;102467.06;41745167;28;20056;-82
2023/12/16 17:04:24;;;;;;;9.05;7.22;;;;;;;21.31;50.95;102483.88;41773329;28;20069;-84
2023/12/16 17:24:25;;;;;;;10.55;7.82;;;;;;;21.46;51.68;102491.09;41782954;28;20061;-81
2023/12/16 17:44:25;;;;;;;9.23;6.93;;;;;;;21.32;51.50;102512.78;41764678;28;20056;-83
2023/12/16 18:04:26;;;;;;;14.25;6.97;;;;;;;21.40;52.23;102538.81;41763630;28;20053;-76
2023/12/16 18:24:27;;;;;;;10.43;7.30;;;;;;;21.36;52.13;102530.19;41784865;28;20052;-75
2023/12/16 18:44:27;;;;;;;10.40;7.07;;;;;;;21.27;51.54;102554.28;41753050;28;20056;-76
2023/12/16 19:04:27;;;;;;;8.07;6.35;;;;;;;21.22;51.22;102564.19;41725790;28;20073;-74
2023/12/16 19:24:28;;;;;;;10.90;6.72;;;;;;;21.30;50.86;102579.66;41733987;28;20049;-80
2023/12/16 19:44:31;;;;;;;16.20;7.68;;;;;;;21.19;51.12;102572.19;41766315;28;20525;-79
2023/12/16 20:04:32;;;;;;;12.63;7.28;;;;;;;21.20;51.80;102595.00;41754803;28;20216;-76
2023/12/16 20:24:33;;;;;;;9.57;7.13;;;;;;;21.15;52.55;102595.19;41755035;28;20052;-77
2023/12/16 20:44:33;;;;;;;11.98;7.20;;;;;;;21.09;52.28;102603.34;41715843;28;20041;-75
2023/12/16 21:04:34;;;;;;;8.68;6.93;;;;;;;20.98;52.68;102602.94;41733296;28;20048;-75
2023/12/16 21:24:38;;;;;;;9.05;6.80;;;;;;;20.91;52.30;102597.06;41744653;28;20037;-75
2023/12/16 21:44:38;;;;;;;8.77;6.63;;;;;;;20.97;52.01;102583.66;41694663;28;20042;-77
2023/12/16 22:04:40;;;;;;;9.50;6.93;;;;;;;21.04;50.48;102586.88;41735753;28;20050;-78
2023/12/16 22:24:40;;;;;;;10.73;7.20;;;;;;;20.86;51.60;102597.28;41718125;28;20052;-74
2023/12/16 22:44:42;;;;;;;9.52;6.88;;;;;;;20.72;52.49;102597.81;41721425;28;20407;-76
2023/12/16 23:04:43;;;;;;;9.02;6.40;;;;;;;20.67;52.87;102581.31;41721859;28;20056;-76
2023/12/16 23:24:44;;;;;;;7.38;5.97;;;;;;;20.64;52.65;102576.16;41733077;28;20463;-75
2023/12/16 23:44:44;;;;;;;8.95;6.45;;;;;;;20.60;52.72;102569.31;41732087;28;20060;-75
